KIMT/IMT METAR and TAF weather

Enter ICAO airport designator
Station Type Date Time Source
KIMT METAR 2019/04/25 01:54 UTC NOAA

KIMT 250154Z AUTO 11006KT 10SM CLR 12/05 A2973 RMK AO2 SLP073 T01170050


Station Type Date Time Source
KIMT Decoded METAR 2019/04/25 01:54 UTC NOAA

IRON MOUNTAIN FORD AIRPORT, MI, United States (KIMT) 45-49N 88-07W 349M
Apr 24, 2019 - 09:54 PM EDT / 2019.04.25 0154 UTC
Wind: from the ESE (110 degrees) at 7 MPH (6 KT):0
Visibility: 10 mile(s):0
Sky conditions: clear
Temperature: 53.1 F (11.7 C)
Dew Point: 41.0 F (5.0 C)
Relative Humidity: 63%
Pressure (altimeter): 29.73 in. Hg (1006 hPa)
ob: KIMT 250154Z AUTO 11006KT 10SM CLR 12/05 A2973 RMK AO2 SLP073 T01170050
cycle: 2

Station Type Date Time Source
KIMT TAF UTC NOAA

Error!

Example: see airport list